sensor_id;sensor_type;location;lat;lon;timestamp;P1;durP1;ratioP1;P2;durP2;ratioP2
7340;SDS011;6870;50.944;6.932;2023-03-04T00:00:12;21.20;;;14.50;;
7340;SDS011;6870;50.944;6.932;2023-03-04T00:02:41;17.70;;;13.63;;
7340;SDS011;6870;50.944;6.932;2023-03-04T00:05:09;17.23;;;13.37;;
7340;SDS011;6870;50.944;6.932;2023-03-04T00:07:37;17.57;;;12.70;;
7340;SDS011;6870;50.944;6.932;2023-03-04T00:10:08;16.50;;;14.63;;
7340;SDS011;6870;50.944;6.932;2023-03-04T00:12:37;18.00;;;14.43;;
7340;SDS011;6870;50.944;6.932;2023-03-04T00:15:06;19.80;;;13.80;;
7340;SDS011;6870;50.944;6.932;2023-03-04T00:17:35;19.80;;;13.77;;
7340;SDS011;6870;50.944;6.932;2023-03-04T00:20:03;16.93;;;13.40;;
7340;SDS011;6870;50.944;6.932;2023-03-04T00:22:33;18.63;;;14.73;;
7340;SDS011;6870;50.944;6.932;2023-03-04T00:25:01;18.63;;;14.60;;
7340;SDS011;6870;50.944;6.932;2023-03-04T00:27:30;20.90;;;14.30;;
7340;SDS011;6870;50.944;6.932;2023-03-04T00:29:58;20.10;;;15.63;;
7340;SDS011;6870;50.944;6.932;2023-03-04T00:32:26;19.57;;;14.37;;
7340;SDS011;6870;50.944;6.932;2023-03-04T00:34:54;21.13;;;13.57;;
7340;SDS011;6870;50.944;6.932;2023-03-04T00:37:22;17.10;;;12.83;;
7340;SDS011;6870;50.944;6.932;2023-03-04T00:39:50;17.20;;;13.03;;
7340;SDS011;6870;50.944;6.932;2023-03-04T00:42:18;25.60;;;13.80;;
7340;SDS011;6870;50.944;6.932;2023-03-04T00:44:48;17.13;;;13.60;;
7340;SDS011;6870;50.944;6.932;2023-03-04T00:47:16;17.10;;;12.87;;
7340;SDS011;6870;50.944;6.932;2023-03-04T00:49:44;22.80;;;14.40;;
7340;SDS011;6870;50.944;6.932;2023-03-04T00:52:12;19.67;;;14.60;;
7340;SDS011;6870;50.944;6.932;2023-03-04T00:54:40;18.20;;;13.97;;
7340;SDS011;6870;50.944;6.932;2023-03-04T00:57:09;18.90;;;13.53;;
7340;SDS011;6870;50.944;6.932;2023-03-04T00:59:37;21.27;;;15.37;;
7340;SDS011;6870;50.944;6.932;2023-03-04T01:02:07;17.50;;;12.87;;
7340;SDS011;6870;50.944;6.932;2023-03-04T01:04:35;20.20;;;13.80;;
7340;SDS011;6870;50.944;6.932;2023-03-04T01:07:04;22.60;;;13.50;;
7340;SDS011;6870;50.944;6.932;2023-03-04T01:09:32;21.73;;;13.37;;
7340;SDS011;6870;50.944;6.932;2023-03-04T01:12:00;20.23;;;13.30;;
7340;SDS011;6870;50.944;6.932;2023-03-04T01:14:28;18.57;;;12.97;;
7340;SDS011;6870;50.944;6.932;2023-03-04T01:16:56;20.20;;;13.77;;
7340;SDS011;6870;50.944;6.932;2023-03-04T01:19:25;19.23;;;12.17;;
7340;SDS011;6870;50.944;6.932;2023-03-04T01:21:53;17.70;;;12.97;;
7340;SDS011;6870;50.944;6.932;2023-03-04T01:24:21;19.60;;;12.93;;
7340;SDS011;6870;50.944;6.932;2023-03-04T01:26:49;19.67;;;12.30;;
7340;SDS011;6870;50.944;6.932;2023-03-04T01:29:18;17.87;;;14.37;;
7340;SDS011;6870;50.944;6.932;2023-03-04T01:31:46;19.60;;;13.17;;
7340;SDS011;6870;50.944;6.932;2023-03-04T01:34:14;19.73;;;12.03;;
7340;SDS011;6870;50.944;6.932;2023-03-04T01:36:44;18.03;;;13.03;;
7340;SDS011;6870;50.944;6.932;2023-03-04T01:39:12;17.53;;;12.80;;
7340;SDS011;6870;50.944;6.932;2023-03-04T01:41:40;19.17;;;12.83;;
7340;SDS011;6870;50.944;6.932;2023-03-04T01:44:09;19.57;;;11.40;;
7340;SDS011;6870;50.944;6.932;2023-03-04T01:46:38;16.77;;;12.17;;
7340;SDS011;6870;50.944;6.932;2023-03-04T01:49:08;15.63;;;12.90;;
7340;SDS011;6870;50.944;6.932;2023-03-04T01:51:41;15.63;;;12.37;;
7340;SDS011;6870;50.944;6.932;2023-03-04T01:54:11;16.87;;;11.57;;
7340;SDS011;6870;50.944;6.932;2023-03-04T01:56:39;15.83;;;12.17;;
7340;SDS011;6870;50.944;6.932;2023-03-04T01:59:12;14.87;;;11.23;;
7340;SDS011;6870;50.944;6.932;2023-03-04T02:01:42;13.90;;;11.97;;
7340;SDS011;6870;50.944;6.932;2023-03-04T02:04:13;14.60;;;12.90;;
7340;SDS011;6870;50.944;6.932;2023-03-04T02:06:43;13.73;;;11.20;;
7340;SDS011;6870;50.944;6.932;2023-03-04T02:09:15;18.00;;;12.57;;
7340;SDS011;6870;50.944;6.932;2023-03-04T02:11:44;17.20;;;12.00;;
7340;SDS011;6870;50.944;6.932;2023-03-04T02:14:14;13.67;;;11.83;;
7340;SDS011;6870;50.944;6.932;2023-03-04T02:16:43;13.70;;;11.60;;
7340;SDS011;6870;50.944;6.932;2023-03-04T02:19:13;20.20;;;13.27;;
7340;SDS011;6870;50.944;6.932;2023-03-04T02:21:46;15.70;;;12.53;;
7340;SDS011;6870;50.944;6.932;2023-03-04T02:24:16;13.10;;;10.60;;
7340;SDS011;6870;50.944;6.932;2023-03-04T02:26:54;12.90;;;10.37;;
7340;SDS011;6870;50.944;6.932;2023-03-04T02:29:22;13.17;;;11.43;;
7340;SDS011;6870;50.944;6.932;2023-03-04T02:31:50;13.90;;;10.80;;
7340;SDS011;6870;50.944;6.932;2023-03-04T02:34:21;15.10;;;11.30;;
7340;SDS011;6870;50.944;6.932;2023-03-04T02:36:51;13.00;;;10.67;;
7340;SDS011;6870;50.944;6.932;2023-03-04T02:39:22;17.73;;;10.20;;
7340;SDS011;6870;50.944;6.932;2023-03-04T02:41:57;16.03;;;12.27;;
7340;SDS011;6870;50.944;6.932;2023-03-04T02:44:27;15.53;;;10.73;;
7340;SDS011;6870;50.944;6.932;2023-03-04T02:47:00;12.97;;;10.90;;
7340;SDS011;6870;50.944;6.932;2023-03-04T02:49:29;13.60;;;11.20;;
7340;SDS011;6870;50.944;6.932;2023-03-04T02:52:00;12.97;;;9.90;;
7340;SDS011;6870;50.944;6.932;2023-03-04T02:54:30;15.17;;;10.47;;
7340;SDS011;6870;50.944;6.932;2023-03-04T02:57:01;12.43;;;9.93;;
7340;SDS011;6870;50.944;6.932;2023-03-04T02:59:32;12.27;;;10.30;;
7340;SDS011;6870;50.944;6.932;2023-03-04T03:02:01;13.90;;;10.63;;
7340;SDS011;6870;50.944;6.932;2023-03-04T03:04:29;12.20;;;10.70;;
7340;SDS011;6870;50.944;6.932;2023-03-04T03:06:57;12.90;;;8.97;;
7340;SDS011;6870;50.944;6.932;2023-03-04T03:09:25;13.23;;;10.33;;
7340;SDS011;6870;50.944;6.932;2023-03-04T03:11:53;11.20;;;9.47;;
7340;SDS011;6870;50.944;6.932;2023-03-04T03:14:23;11.70;;;9.80;;
7340;SDS011;6870;50.944;6.932;2023-03-04T03:16:51;13.10;;;10.47;;
7340;SDS011;6870;50.944;6.932;2023-03-04T03:19:19;12.73;;;10.47;;
7340;SDS011;6870;50.944;6.932;2023-03-04T03:21:47;14.13;;;10.33;;
7340;SDS011;6870;50.944;6.932;2023-03-04T03:24:15;11.77;;;10.00;;
7340;SDS011;6870;50.944;6.932;2023-03-04T03:26:43;13.93;;;9.90;;
7340;SDS011;6870;50.944;6.932;2023-03-04T03:29:11;13.03;;;10.57;;
7340;SDS011;6870;50.944;6.932;2023-03-04T03:31:40;12.47;;;8.40;;
7340;SDS011;6870;50.944;6.932;2023-03-04T03:34:08;14.30;;;9.90;;
7340;SDS011;6870;50.944;6.932;2023-03-04T03:36:36;11.80;;;9.83;;
7340;SDS011;6870;50.944;6.932;2023-03-04T03:39:04;12.23;;;9.73;;
7340;SDS011;6870;50.944;6.932;2023-03-04T03:41:32;11.13;;;9.87;;
7340;SDS011;6870;50.944;6.932;2023-03-04T03:44:01;13.03;;;9.80;;
7340;SDS011;6870;50.944;6.932;2023-03-04T03:46:29;11.43;;;9.30;;
7340;SDS011;6870;50.944;6.932;2023-03-04T03:48:58;12.47;;;9.73;;
7340;SDS011;6870;50.944;6.932;2023-03-04T03:51:26;12.50;;;9.37;;
7340;SDS011;6870;50.944;6.932;2023-03-04T03:53:54;12.30;;;10.23;;
7340;SDS011;6870;50.944;6.932;2023-03-04T03:56:22;11.23;;;9.80;;
7340;SDS011;6870;50.944;6.932;2023-03-04T03:58:50;11.13;;;8.50;;
7340;SDS011;6870;50.944;6.932;2023-03-04T04:01:18;13.60;;;10.40;;
7340;SDS011;6870;50.944;6.932;2023-03-04T04:03:46;12.40;;;8.60;;
7340;SDS011;6870;50.944;6.932;2023-03-04T04:06:15;12.30;;;9.43;;
7340;SDS011;6870;50.944;6.932;2023-03-04T04:08:44;12.07;;;8.83;;
7340;SDS011;6870;50.944;6.932;2023-03-04T04:11:12;10.90;;;9.07;;
7340;SDS011;6870;50.944;6.932;2023-03-04T04:13:40;10.90;;;8.50;;
7340;SDS011;6870;50.944;6.932;2023-03-04T04:16:08;10.87;;;8.83;;
7340;SDS011;6870;50.944;6.932;2023-03-04T04:18:36;10.37;;;9.03;;
7340;SDS011;6870;50.944;6.932;2023-03-04T04:21:05;9.97;;;8.60;;
7340;SDS011;6870;50.944;6.932;2023-03-04T04:23:34;12.07;;;9.53;;
7340;SDS011;6870;50.944;6.932;2023-03-04T04:26:02;10.50;;;9.10;;
7340;SDS011;6870;50.944;6.932;2023-03-04T04:28:31;10.00;;;7.80;;
7340;SDS011;6870;50.944;6.932;2023-03-04T04:30:59;11.33;;;8.47;;
7340;SDS011;6870;50.944;6.932;2023-03-04T04:33:27;11.97;;;8.83;;
7340;SDS011;6870;50.944;6.932;2023-03-04T04:35:55;9.70;;;8.67;;
7340;SDS011;6870;50.944;6.932;2023-03-04T04:38:23;10.73;;;8.93;;
7340;SDS011;6870;50.944;6.932;2023-03-04T04:40:52;8.80;;;7.73;;
7340;SDS011;6870;50.944;6.932;2023-03-04T04:43:23;10.47;;;8.77;;
7340;SDS011;6870;50.944;6.932;2023-03-04T04:45:52;11.07;;;8.60;;
7340;SDS011;6870;50.944;6.932;2023-03-04T04:48:20;12.30;;;8.10;;
7340;SDS011;6870;50.944;6.932;2023-03-04T04:50:52;10.03;;;7.83;;
7340;SDS011;6870;50.944;6.932;2023-03-04T04:53:22;10.40;;;7.63;;
7340;SDS011;6870;50.944;6.932;2023-03-04T04:55:50;10.00;;;7.80;;
7340;SDS011;6870;50.944;6.932;2023-03-04T04:58:19;12.63;;;9.60;;
7340;SDS011;6870;50.944;6.932;2023-03-04T05:00:47;11.07;;;8.57;;
7340;SDS011;6870;50.944;6.932;2023-03-04T05:03:15;9.97;;;8.57;;
7340;SDS011;6870;50.944;6.932;2023-03-04T05:05:44;10.10;;;8.33;;
7340;SDS011;6870;50.944;6.932;2023-03-04T05:08:12;9.33;;;7.60;;
7340;SDS011;6870;50.944;6.932;2023-03-04T05:10:40;8.47;;;7.10;;
7340;SDS011;6870;50.944;6.932;2023-03-04T05:13:08;11.97;;;9.13;;
7340;SDS011;6870;50.944;6.932;2023-03-04T05:15:37;10.17;;;8.20;;
7340;SDS011;6870;50.944;6.932;2023-03-04T05:18:05;9.07;;;7.97;;
7340;SDS011;6870;50.944;6.932;2023-03-04T05:20:33;9.80;;;7.20;;
7340;SDS011;6870;50.944;6.932;2023-03-04T05:23:02;9.53;;;7.43;;
7340;SDS011;6870;50.944;6.932;2023-03-04T05:25:30;8.90;;;7.27;;
7340;SDS011;6870;50.944;6.932;2023-03-04T05:27:58;10.07;;;9.03;;
7340;SDS011;6870;50.944;6.932;2023-03-04T05:30:27;9.03;;;7.50;;
7340;SDS011;6870;50.944;6.932;2023-03-04T05:32:56;9.27;;;7.30;;
7340;SDS011;6870;50.944;6.932;2023-03-04T05:35:24;8.90;;;6.97;;
7340;SDS011;6870;50.944;6.932;2023-03-04T05:37:54;8.40;;;7.07;;
7340;SDS011;6870;50.944;6.932;2023-03-04T05:40:22;8.13;;;6.93;;
7340;SDS011;6870;50.944;6.932;2023-03-04T05:42:51;9.67;;;7.57;;
7340;SDS011;6870;50.944;6.932;2023-03-04T05:45:19;7.40;;;6.27;;
7340;SDS011;6870;50.944;6.932;2023-03-04T05:47:47;8.03;;;6.30;;
7340;SDS011;6870;50.944;6.932;2023-03-04T05:50:17;9.07;;;8.10;;
7340;SDS011;6870;50.944;6.932;2023-03-04T05:52:45;9.67;;;6.67;;
7340;SDS011;6870;50.944;6.932;2023-03-04T05:55:14;8.53;;;7.10;;
7340;SDS011;6870;50.944;6.932;2023-03-04T05:57:43;7.50;;;6.50;;
7340;SDS011;6870;50.944;6.932;2023-03-04T06:00:12;6.90;;;6.20;;
7340;SDS011;6870;50.944;6.932;2023-03-04T06:02:42;9.50;;;6.90;;
7340;SDS011;6870;50.944;6.932;2023-03-04T06:05:12;8.90;;;7.57;;
7340;SDS011;6870;50.944;6.932;2023-03-04T06:07:43;9.43;;;6.80;;
7340;SDS011;6870;50.944;6.932;2023-03-04T06:10:11;11.13;;;7.80;;
7340;SDS011;6870;50.944;6.932;2023-03-04T06:12:43;7.13;;;5.90;;
7340;SDS011;6870;50.944;6.932;2023-03-04T06:15:11;9.57;;;6.40;;
7340;SDS011;6870;50.944;6.932;2023-03-04T06:17:40;9.07;;;6.93;;
7340;SDS011;6870;50.944;6.932;2023-03-04T06:20:10;7.93;;;6.50;;
7340;SDS011;6870;50.944;6.932;2023-03-04T06:22:39;9.30;;;6.67;;
7340;SDS011;6870;50.944;6.932;2023-03-04T06:25:08;8.03;;;6.40;;
7340;SDS011;6870;50.944;6.932;2023-03-04T06:27:36;9.37;;;5.97;;
7340;SDS011;6870;50.944;6.932;2023-03-04T06:30:05;7.23;;;6.53;;
7340;SDS011;6870;50.944;6.932;2023-03-04T06:32:35;8.60;;;6.43;;
7340;SDS011;6870;50.944;6.932;2023-03-04T06:35:03;8.33;;;6.60;;
7340;SDS011;6870;50.944;6.932;2023-03-04T06:37:32;8.30;;;7.00;;
7340;SDS011;6870;50.944;6.932;2023-03-04T06:40:00;8.40;;;6.37;;
7340;SDS011;6870;50.944;6.932;2023-03-04T06:42:30;7.87;;;5.80;;
7340;SDS011;6870;50.944;6.932;2023-03-04T06:44:58;8.43;;;6.13;;
7340;SDS011;6870;50.944;6.932;2023-03-04T06:47:26;7.50;;;5.80;;
7340;SDS011;6870;50.944;6.932;2023-03-04T06:49:55;9.57;;;6.07;;
7340;SDS011;6870;50.944;6.932;2023-03-04T06:52:23;8.10;;;6.03;;
7340;SDS011;6870;50.944;6.932;2023-03-04T06:54:51;9.27;;;6.83;;
7340;SDS011;6870;50.944;6.932;2023-03-04T06:57:19;8.47;;;5.90;;
7340;SDS011;6870;50.944;6.932;2023-03-04T06:59:48;7.87;;;5.97;;
7340;SDS011;6870;50.944;6.932;2023-03-04T07:02:16;8.20;;;6.20;;
7340;SDS011;6870;50.944;6.932;2023-03-04T07:04:44;7.00;;;5.90;;
7340;SDS011;6870;50.944;6.932;2023-03-04T07:07:12;8.47;;;5.70;;
7340;SDS011;6870;50.944;6.932;2023-03-04T07:09:40;7.40;;;5.87;;
7340;SDS011;6870;50.944;6.932;2023-03-04T07:12:08;6.73;;;5.43;;
7340;SDS011;6870;50.944;6.932;2023-03-04T07:14:36;8.00;;;5.70;;
7340;SDS011;6870;50.944;6.932;2023-03-04T07:17:06;7.30;;;5.30;;
7340;SDS011;6870;50.944;6.932;2023-03-04T07:19:34;5.33;;;4.80;;
7340;SDS011;6870;50.944;6.932;2023-03-04T07:22:02;8.40;;;5.10;;
7340;SDS011;6870;50.944;6.932;2023-03-04T07:24:30;9.30;;;6.13;;
7340;SDS011;6870;50.944;6.932;2023-03-04T07:26:58;8.70;;;5.90;;
7340;SDS011;6870;50.944;6.932;2023-03-04T07:29:26;5.97;;;4.53;;
7340;SDS011;6870;50.944;6.932;2023-03-04T07:31:54;5.63;;;4.67;;
7340;SDS011;6870;50.944;6.932;2023-03-04T07:34:23;6.93;;;4.50;;
7340;SDS011;6870;50.944;6.932;2023-03-04T07:36:52;7.10;;;4.40;;
7340;SDS011;6870;50.944;6.932;2023-03-04T07:39:20;8.80;;;5.20;;
7340;SDS011;6870;50.944;6.932;2023-03-04T07:41:48;6.40;;;4.13;;
7340;SDS011;6870;50.944;6.932;2023-03-04T07:44:16;11.80;;;4.27;;
7340;SDS011;6870;50.944;6.932;2023-03-04T07:46:44;8.27;;;4.17;;
7340;SDS011;6870;50.944;6.932;2023-03-04T07:49:12;5.40;;;4.33;;
7340;SDS011;6870;50.944;6.932;2023-03-04T07:51:42;8.20;;;4.10;;
7340;SDS011;6870;50.944;6.932;2023-03-04T07:54:10;10.20;;;4.70;;
7340;SDS011;6870;50.944;6.932;2023-03-04T07:56:38;6.93;;;3.77;;
7340;SDS011;6870;50.944;6.932;2023-03-04T07:59:06;7.80;;;4.33;;
7340;SDS011;6870;50.944;6.932;2023-03-04T08:01:34;11.50;;;4.27;;
7340;SDS011;6870;50.944;6.932;2023-03-04T08:04:04;12.73;;;4.77;;
7340;SDS011;6870;50.944;6.932;2023-03-04T08:06:33;10.10;;;4.70;;
7340;SDS011;6870;50.944;6.932;2023-03-04T08:09:03;15.57;;;4.90;;
7340;SDS011;6870;50.944;6.932;2023-03-04T08:11:34;9.60;;;4.07;;
7340;SDS011;6870;50.944;6.932;2023-03-04T08:14:03;5.13;;;3.60;;
7340;SDS011;6870;50.944;6.932;2023-03-04T08:16:32;13.00;;;3.33;;
7340;SDS011;6870;50.944;6.932;2023-03-04T08:19:00;8.00;;;3.30;;
7340;SDS011;6870;50.944;6.932;2023-03-04T08:21:30;10.70;;;4.13;;
7340;SDS011;6870;50.944;6.932;2023-03-04T08:23:59;12.20;;;4.27;;
7340;SDS011;6870;50.944;6.932;2023-03-04T08:26:35;9.13;;;3.40;;
7340;SDS011;6870;50.944;6.932;2023-03-04T08:29:07;14.93;;;4.53;;
7340;SDS011;6870;50.944;6.932;2023-03-04T08:31:39;9.47;;;4.07;;
7340;SDS011;6870;50.944;6.932;2023-03-04T08:34:07;8.13;;;3.30;;
7340;SDS011;6870;50.944;6.932;2023-03-04T08:36:36;9.40;;;3.70;;
7340;SDS011;6870;50.944;6.932;2023-03-04T08:39:05;13.07;;;3.57;;
7340;SDS011;6870;50.944;6.932;2023-03-04T08:41:34;9.80;;;4.73;;
7340;SDS011;6870;50.944;6.932;2023-03-04T08:44:02;16.87;;;4.97;;
7340;SDS011;6870;50.944;6.932;2023-03-04T08:46:31;8.83;;;3.93;;
7340;SDS011;6870;50.944;6.932;2023-03-04T08:48:59;10.05;;;4.10;;
7340;SDS011;6870;50.944;6.932;2023-03-04T08:51:27;9.20;;;3.67;;
7340;SDS011;6870;50.944;6.932;2023-03-04T08:53:55;18.63;;;4.17;;
7340;SDS011;6870;50.944;6.932;2023-03-04T08:56:23;15.43;;;4.53;;
7340;SDS011;6870;50.944;6.932;2023-03-04T08:58:52;15.20;;;3.70;;
7340;SDS011;6870;50.944;6.932;2023-03-04T09:01:20;13.80;;;3.37;;
7340;SDS011;6870;50.944;6.932;2023-03-04T09:03:48;8.63;;;4.00;;
7340;SDS011;6870;50.944;6.932;2023-03-04T09:06:17;13.87;;;4.10;;
7340;SDS011;6870;50.944;6.932;2023-03-04T09:08:45;11.70;;;3.57;;
7340;SDS011;6870;50.944;6.932;2023-03-04T09:11:13;13.03;;;4.40;;
7340;SDS011;6870;50.944;6.932;2023-03-04T09:13:42;15.73;;;4.43;;
7340;SDS011;6870;50.944;6.932;2023-03-04T09:16:12;11.80;;;4.20;;
7340;SDS011;6870;50.944;6.932;2023-03-04T09:18:41;16.70;;;3.80;;
7340;SDS011;6870;50.944;6.932;2023-03-04T09:21:09;10.20;;;2.90;;
7340;SDS011;6870;50.944;6.932;2023-03-04T09:23:38;10.70;;;4.13;;
7340;SDS011;6870;50.944;6.932;2023-03-04T09:26:13;8.03;;;3.03;;
7340;SDS011;6870;50.944;6.932;2023-03-04T09:28:48;11.93;;;4.10;;
7340;SDS011;6870;50.944;6.932;2023-03-04T09:31:19;8.37;;;2.93;;
7340;SDS011;6870;50.944;6.932;2023-03-04T09:33:47;11.77;;;3.90;;
7340;SDS011;6870;50.944;6.932;2023-03-04T09:36:18;13.53;;;4.00;;
7340;SDS011;6870;50.944;6.932;2023-03-04T09:38:46;10.83;;;3.27;;
7340;SDS011;6870;50.944;6.932;2023-03-04T09:41:15;9.00;;;3.73;;
7340;SDS011;6870;50.944;6.932;2023-03-04T09:43:47;6.70;;;2.90;;
7340;SDS011;6870;50.944;6.932;2023-03-04T09:46:20;14.30;;;3.70;;
7340;SDS011;6870;50.944;6.932;2023-03-04T09:48:56;7.70;;;3.43;;
7340;SDS011;6870;50.944;6.932;2023-03-04T09:51:30;8.60;;;3.77;;
7340;SDS011;6870;50.944;6.932;2023-03-04T09:54:10;20.33;;;3.63;;
7340;SDS011;6870;50.944;6.932;2023-03-04T09:56:46;6.70;;;2.90;;
7340;SDS011;6870;50.944;6.932;2023-03-04T09:59:21;9.33;;;3.20;;
7340;SDS011;6870;50.944;6.932;2023-03-04T10:01:54;6.20;;;2.30;;
7340;SDS011;6870;50.944;6.932;2023-03-04T10:04:35;9.00;;;3.27;;
7340;SDS011;6870;50.944;6.932;2023-03-04T10:07:09;8.03;;;2.97;;
7340;SDS011;6870;50.944;6.932;2023-03-04T10:09:45;5.73;;;3.07;;
7340;SDS011;6870;50.944;6.932;2023-03-04T10:12:17;8.70;;;3.10;;
7340;SDS011;6870;50.944;6.932;2023-03-04T10:14:49;7.17;;;3.40;;
7340;SDS011;6870;50.944;6.932;2023-03-04T10:17:26;6.73;;;3.40;;
7340;SDS011;6870;50.944;6.932;2023-03-04T10:20:02;5.40;;;2.43;;
7340;SDS011;6870;50.944;6.932;2023-03-04T10:22:38;6.30;;;2.50;;
7340;SDS011;6870;50.944;6.932;2023-03-04T10:25:15;8.23;;;2.40;;
7340;SDS011;6870;50.944;6.932;2023-03-04T10:27:48;4.97;;;2.70;;
7340;SDS011;6870;50.944;6.932;2023-03-04T10:30:35;5.87;;;2.17;;
7340;SDS011;6870;50.944;6.932;2023-03-04T10:33:13;4.27;;;2.73;;
7340;SDS011;6870;50.944;6.932;2023-03-04T10:35:44;15.23;;;3.70;;
7340;SDS011;6870;50.944;6.932;2023-03-04T10:38:15;7.23;;;2.80;;
7340;SDS011;6870;50.944;6.932;2023-03-04T10:40:46;3.90;;;2.17;;
7340;SDS011;6870;50.944;6.932;2023-03-04T10:43:15;4.40;;;2.50;;
7340;SDS011;6870;50.944;6.932;2023-03-04T10:45:44;6.13;;;2.50;;
7340;SDS011;6870;50.944;6.932;2023-03-04T10:48:22;6.87;;;2.67;;
7340;SDS011;6870;50.944;6.932;2023-03-04T10:50:53;8.93;;;3.00;;
7340;SDS011;6870;50.944;6.932;2023-03-04T10:53:39;10.47;;;3.40;;
7340;SDS011;6870;50.944;6.932;2023-03-04T11:02:16;5.10;;;3.03;;
7340;SDS011;6870;50.944;6.932;2023-03-04T11:04:52;6.70;;;2.93;;
7340;SDS011;6870;50.944;6.932;2023-03-04T11:07:24;5.83;;;2.57;;
7340;SDS011;6870;50.944;6.932;2023-03-04T11:09:53;5.13;;;2.97;;
7340;SDS011;6870;50.944;6.932;2023-03-04T11:12:30;7.10;;;2.43;;
7340;SDS011;6870;50.944;6.932;2023-03-04T11:15:01;4.77;;;2.03;;
7340;SDS011;6870;50.944;6.932;2023-03-04T11:17:38;4.20;;;2.43;;
7340;SDS011;6870;50.944;6.932;2023-03-04T11:20:13;5.43;;;2.40;;
7340;SDS011;6870;50.944;6.932;2023-03-04T11:22:48;5.90;;;2.67;;
7340;SDS011;6870;50.944;6.932;2023-03-04T11:25:20;5.23;;;3.20;;
7340;SDS011;6870;50.944;6.932;2023-03-04T11:27:54;9.23;;;3.30;;
7340;SDS011;6870;50.944;6.932;2023-03-04T11:30:26;5.30;;;2.70;;
7340;SDS011;6870;50.944;6.932;2023-03-04T11:33:04;5.10;;;2.53;;
7340;SDS011;6870;50.944;6.932;2023-03-04T11:35:43;4.30;;;2.50;;
7340;SDS011;6870;50.944;6.932;2023-03-04T11:38:22;3.37;;;2.23;;
7340;SDS011;6870;50.944;6.932;2023-03-04T11:40:56;3.87;;;2.83;;
7340;SDS011;6870;50.944;6.932;2023-03-04T11:43:29;4.57;;;2.60;;
7340;SDS011;6870;50.944;6.932;2023-03-04T11:49:16;5.70;;;1.97;;
7340;SDS011;6870;50.944;6.932;2023-03-04T11:52:15;3.10;;;2.10;;
7340;SDS011;6870;50.944;6.932;2023-03-04T11:54:56;4.50;;;2.23;;
7340;SDS011;6870;50.944;6.932;2023-03-04T11:57:40;5.57;;;2.60;;
7340;SDS011;6870;50.944;6.932;2023-03-04T12:00:21;3.73;;;2.40;;
7340;SDS011;6870;50.944;6.932;2023-03-04T12:03:11;3.87;;;2.03;;
7340;SDS011;6870;50.944;6.932;2023-03-04T12:06:01;4.37;;;2.17;;
7340;SDS011;6870;50.944;6.932;2023-03-04T12:08:40;3.80;;;2.10;;
7340;SDS011;6870;50.944;6.932;2023-03-04T12:11:26;5.20;;;2.50;;
7340;SDS011;6870;50.944;6.932;2023-03-04T12:14:20;5.30;;;2.60;;
7340;SDS011;6870;50.944;6.932;2023-03-04T12:17:01;4.03;;;2.87;;
7340;SDS011;6870;50.944;6.932;2023-03-04T12:19:53;4.23;;;2.60;;
7340;SDS011;6870;50.944;6.932;2023-03-04T12:22:52;5.77;;;2.10;;
7340;SDS011;6870;50.944;6.932;2023-03-04T12:25:39;4.27;;;1.77;;
7340;SDS011;6870;50.944;6.932;2023-03-04T12:28:22;2.20;;;1.63;;
7340;SDS011;6870;50.944;6.932;2023-03-04T12:37:03;3.30;;;1.93;;
7340;SDS011;6870;50.944;6.932;2023-03-04T12:40:22;6.07;;;2.77;;
7340;SDS011;6870;50.944;6.932;2023-03-04T12:43:18;4.90;;;2.03;;
7340;SDS011;6870;50.944;6.932;2023-03-04T12:46:03;4.20;;;2.50;;
7340;SDS011;6870;50.944;6.932;2023-03-04T12:48:44;4.10;;;2.30;;
7340;SDS011;6870;50.944;6.932;2023-03-04T12:51:27;3.77;;;2.60;;
7340;SDS011;6870;50.944;6.932;2023-03-04T12:54:07;5.43;;;2.47;;
7340;SDS011;6870;50.944;6.932;2023-03-04T12:56:49;3.53;;;2.27;;
7340;SDS011;6870;50.944;6.932;2023-03-04T12:59:22;4.20;;;2.00;;
7340;SDS011;6870;50.944;6.932;2023-03-04T13:01:55;4.80;;;2.00;;
7340;SDS011;6870;50.944;6.932;2023-03-04T13:05:14;4.03;;;2.30;;
7340;SDS011;6870;50.944;6.932;2023-03-04T13:07:55;4.13;;;2.17;;
7340;SDS011;6870;50.944;6.932;2023-03-04T13:10:32;3.30;;;2.30;;
7340;SDS011;6870;50.944;6.932;2023-03-04T13:13:00;1.80;;;1.40;;
7340;SDS011;6870;50.944;6.932;2023-03-04T13:15:32;3.10;;;1.60;;
7340;SDS011;6870;50.944;6.932;2023-03-04T13:18:03;1.63;;;1.33;;
7340;SDS011;6870;50.944;6.932;2023-03-04T13:21:12;1.90;;;1.30;;
7340;SDS011;6870;50.944;6.932;2023-03-04T13:23:49;2.33;;;1.80;;
7340;SDS011;6870;50.944;6.932;2023-03-04T13:26:18;4.77;;;1.90;;
7340;SDS011;6870;50.944;6.932;2023-03-04T13:29:10;2.70;;;1.37;;
7340;SDS011;6870;50.944;6.932;2023-03-04T13:32:04;2.10;;;1.50;;
7340;SDS011;6870;50.944;6.932;2023-03-04T13:34:41;3.07;;;1.90;;
7340;SDS011;6870;50.944;6.932;2023-03-04T13:37:24;5.93;;;1.93;;
7340;SDS011;6870;50.944;6.932;2023-03-04T13:45:54;4.67;;;2.10;;
7340;SDS011;6870;50.944;6.932;2023-03-04T13:48:25;2.57;;;1.70;;
7340;SDS011;6870;50.944;6.932;2023-03-04T13:50:58;2.23;;;1.40;;
7340;SDS011;6870;50.944;6.932;2023-03-04T13:53:30;2.70;;;1.70;;
7340;SDS011;6870;50.944;6.932;2023-03-04T13:56:17;3.47;;;1.63;;
7340;SDS011;6870;50.944;6.932;2023-03-04T13:59:03;2.47;;;1.73;;
7340;SDS011;6870;50.944;6.932;2023-03-04T14:01:59;3.10;;;2.33;;
7340;SDS011;6870;50.944;6.932;2023-03-04T14:04:32;4.20;;;1.80;;
7340;SDS011;6870;50.944;6.932;2023-03-04T14:07:03;5.90;;;1.63;;
7340;SDS011;6870;50.944;6.932;2023-03-04T14:09:53;4.20;;;1.90;;
7340;SDS011;6870;50.944;6.932;2023-03-04T14:12:24;2.50;;;1.70;;
7340;SDS011;6870;50.944;6.932;2023-03-04T14:14:55;2.87;;;1.40;;
7340;SDS011;6870;50.944;6.932;2023-03-04T14:17:26;3.10;;;1.67;;
7340;SDS011;6870;50.944;6.932;2023-03-04T14:19:59;3.87;;;1.57;;
7340;SDS011;6870;50.944;6.932;2023-03-04T14:22:28;3.23;;;1.90;;
7340;SDS011;6870;50.944;6.932;2023-03-04T14:24:59;1.80;;;1.13;;
7340;SDS011;6870;50.944;6.932;2023-03-04T14:27:33;4.60;;;1.70;;
7340;SDS011;6870;50.944;6.932;2023-03-04T14:30:04;2.50;;;1.93;;
7340;SDS011;6870;50.944;6.932;2023-03-04T14:32:35;2.60;;;1.70;;
7340;SDS011;6870;50.944;6.932;2023-03-04T14:35:05;4.20;;;1.60;;
7340;SDS011;6870;50.944;6.932;2023-03-04T14:37:48;2.17;;;1.30;;
7340;SDS011;6870;50.944;6.932;2023-03-04T14:40:22;4.00;;;2.13;;
7340;SDS011;6870;50.944;6.932;2023-03-04T14:42:54;3.80;;;1.83;;
7340;SDS011;6870;50.944;6.932;2023-03-04T14:45:26;3.00;;;2.00;;
7340;SDS011;6870;50.944;6.932;2023-03-04T14:47:56;1.80;;;1.53;;
7340;SDS011;6870;50.944;6.932;2023-03-04T14:50:30;3.83;;;1.33;;
7340;SDS011;6870;50.944;6.932;2023-03-04T14:53:03;1.93;;;1.40;;
7340;SDS011;6870;50.944;6.932;2023-03-04T14:55:58;2.70;;;1.77;;
7340;SDS011;6870;50.944;6.932;2023-03-04T14:58:29;3.50;;;2.03;;
7340;SDS011;6870;50.944;6.932;2023-03-04T15:01:05;2.40;;;1.43;;
7340;SDS011;6870;50.944;6.932;2023-03-04T15:03:41;3.17;;;1.53;;
7340;SDS011;6870;50.944;6.932;2023-03-04T15:06:17;2.80;;;1.87;;
7340;SDS011;6870;50.944;6.932;2023-03-04T15:08:52;2.00;;;1.40;;
7340;SDS011;6870;50.944;6.932;2023-03-04T15:11:23;2.40;;;1.53;;
7340;SDS011;6870;50.944;6.932;2023-03-04T15:13:54;2.20;;;1.57;;
7340;SDS011;6870;50.944;6.932;2023-03-04T15:16:24;2.33;;;1.53;;
7340;SDS011;6870;50.944;6.932;2023-03-04T15:18:56;2.60;;;1.23;;
7340;SDS011;6870;50.944;6.932;2023-03-04T15:21:33;4.50;;;1.80;;
7340;SDS011;6870;50.944;6.932;2023-03-04T15:24:04;2.03;;;1.80;;
7340;SDS011;6870;50.944;6.932;2023-03-04T15:26:36;6.03;;;1.10;;
7340;SDS011;6870;50.944;6.932;2023-03-04T15:29:11;2.23;;;1.50;;
7340;SDS011;6870;50.944;6.932;2023-03-04T15:31:41;3.50;;;1.80;;
7340;SDS011;6870;50.944;6.932;2023-03-04T15:34:10;3.43;;;1.30;;
7340;SDS011;6870;50.944;6.932;2023-03-04T15:36:41;3.20;;;1.43;;
7340;SDS011;6870;50.944;6.932;2023-03-04T15:39:12;2.47;;;1.40;;
7340;SDS011;6870;50.944;6.932;2023-03-04T15:41:43;3.10;;;1.43;;
7340;SDS011;6870;50.944;6.932;2023-03-04T15:44:13;3.83;;;1.63;;
7340;SDS011;6870;50.944;6.932;2023-03-04T15:46:42;1.93;;;1.17;;
7340;SDS011;6870;50.944;6.932;2023-03-04T15:49:11;2.10;;;1.60;;
7340;SDS011;6870;50.944;6.932;2023-03-04T15:51:39;1.37;;;1.03;;
7340;SDS011;6870;50.944;6.932;2023-03-04T15:54:09;4.50;;;1.80;;